Time;durP1;ratioP1;P1;durP2;ratioP2;P2;SDS_P1;SDS_P2;PMS_P1;PMS_P2;Temp;Humidity;BMP_temperature;BMP_pressure;BME280_temperature;BME280_humidity;BME280_pressure;Samples;Min_cycle;Max_cycle;Signal;HPM_P1;HPM_P2
2023/07/04 00:01:54;;;;;;;4.40;1.60;;;;;;;16.15;100.00;99856.72;104643;1260;70622;-48
2023/07/04 00:04:21;;;;;;;2.10;1.90;;;;;;;16.10;100.00;99860.18;104699;1262;60361;-48
2023/07/04 00:06:50;;;;;;;2.20;1.40;;;;;;;16.07;100.00;99859.66;104650;1262;59962;-48
2023/07/04 00:09:18;;;;;;;2.20;1.20;;;;;;;16.05;100.00;99861.11;104588;1257;73130;-49
2023/07/04 00:11:45;;;;;;;1.90;1.30;;;;;;;16.01;100.00;99862.44;104870;1257;67354;-47
2023/07/04 00:14:13;;;;;;;4.00;1.40;;;;;;;15.99;100.00;99860.95;104727;1257;71397;-49
2023/07/04 00:16:40;;;;;;;3.80;1.40;;;;;;;15.95;100.00;99864.50;104633;1262;60553;-48
2023/07/04 00:19:07;;;;;;;1.60;1.30;;;;;;;15.87;100.00;99863.96;104746;1259;60466;-49
2023/07/04 00:21:38;;;;;;;4.20;2.10;;;;;;;15.83;100.00;99863.11;104797;1257;73001;-50
2023/07/04 00:24:06;;;;;;;2.90;1.50;;;;;;;15.82;100.00;99867.15;104629;1257;67038;-48
2023/07/04 00:26:34;;;;;;;1.30;1.20;;;;;;;15.82;100.00;99868.98;104617;1257;71146;-49
2023/07/04 00:29:02;;;;;;;4.00;1.40;;;;;;;15.82;100.00;99869.33;105178;1257;61657;-48
2023/07/04 00:31:30;;;;;;;3.10;1.40;;;;;;;15.82;100.00;99874.78;104552;1257;60111;-49
2023/07/04 00:33:57;;;;;;;4.40;1.50;;;;;;;15.81;100.00;99880.25;104658;1262;73030;-48
2023/07/04 00:36:25;;;;;;;2.20;1.70;;;;;;;15.76;100.00;99880.64;104762;1262;67301;-47
2023/07/04 00:38:56;;;;;;;5.60;2.00;;;;;;;15.72;100.00;99884.38;104689;1257;71243;-50
2023/07/04 00:41:27;;;;;;;3.60;1.80;;;;;;;15.66;100.00;99885.66;104750;1257;60102;-51
2023/07/04 00:44:14;;;;;;;4.40;2.00;;;;;;;15.54;100.00;99886.65;105279;1258;60045;-51
2023/07/04 00:47:12;;;;;;;1.70;1.20;;;;;;;15.46;100.00;99883.37;104687;1261;72580;-50
2023/07/04 00:49:44;;;;;;;3.90;1.30;;;;;;;15.46;100.00;99885.17;106139;1257;66788;-49
2023/07/04 00:52:13;;;;;;;2.80;1.00;;;;;;;15.48;100.00;99887.59;104701;1262;73167;-50
2023/07/04 00:55:01;;;;;;;2.30;1.30;;;;;;;15.47;100.00;99884.55;104518;1257;62272;-50
2023/07/04 00:57:39;;;;;;;5.30;1.40;;;;;;;15.47;100.00;99884.74;104462;1256;59972;-48
2023/07/04 01:00:16;;;;;;;2.10;1.50;;;;;;;15.48;100.00;99884.65;104957;1257;71856;-47
2023/07/04 01:02:48;;;;;;;2.70;1.80;;;;;;;15.50;100.00;99885.23;106091;1262;66322;-47
2023/07/04 01:05:33;;;;;;;3.50;1.60;;;;;;;15.52;100.00;99885.09;104705;1264;73559;-51
2023/07/04 01:08:05;;;;;;;6.40;1.50;;;;;;;15.52;100.00;99886.54;104619;1257;59983;-48
2023/07/04 01:10:36;;;;;;;3.20;1.40;;;;;;;15.47;100.00;99887.64;104572;1258;59946;-49
2023/07/04 01:13:03;;;;;;;3.20;1.60;;;;;;;15.42;100.00;99893.18;105607;1260;73017;-48
2023/07/04 01:15:31;;;;;;;2.60;2.00;;;;;;;15.40;100.00;99894.02;104456;1260;65522;-48
2023/07/04 01:17:58;;;;;;;2.20;2.00;;;;;;;15.38;100.00;99891.62;104713;1262;73400;-48
2023/07/04 01:20:26;;;;;;;2.20;1.80;;;;;;;15.37;100.00;99896.62;108697;1259;60389;-51
2023/07/04 01:22:53;;;;;;;3.60;1.60;;;;;;;15.36;100.00;99902.66;108648;1257;58739;-51
2023/07/04 01:25:35;;;;;;;1.70;1.20;;;;;;;15.35;100.00;99904.84;108668;1257;71799;-51
2023/07/04 01:28:02;;;;;;;2.00;1.40;;;;;;;15.36;100.00;99900.12;108672;1259;67938;-52
2023/07/04 01:30:32;;;;;;;3.30;1.60;;;;;;;15.37;100.00;99902.36;108649;1259;72792;-50
2023/07/04 01:32:59;;;;;;;2.10;1.90;;;;;;;15.34;100.00;99906.90;108605;1264;60078;-50
2023/07/04 01:35:27;;;;;;;2.30;2.10;;;;;;;15.27;100.00;99903.95;108668;1259;58744;-49
2023/07/04 01:37:55;;;;;;;2.80;1.70;;;;;;;15.16;100.00;99905.16;108628;1264;71786;-48
2023/07/04 01:40:23;;;;;;;4.20;1.60;;;;;;;15.12;100.00;99911.79;108627;1260;66764;-50
2023/07/04 01:42:51;;;;;;;3.10;2.30;;;;;;;15.04;100.00;99910.86;108126;1259;72472;-51
2023/07/04 01:45:19;;;;;;;2.80;2.20;;;;;;;14.99;100.00;99911.19;108672;1259;60252;-49
2023/07/04 01:47:47;;;;;;;5.10;2.00;;;;;;;14.96;100.00;99912.82;108727;1258;58819;-50
2023/07/04 01:50:14;;;;;;;1.70;1.50;;;;;;;14.93;100.00;99910.14;108657;1260;73023;-50
2023/07/04 01:52:42;;;;;;;2.30;1.60;;;;;;;14.91;100.00;99908.45;108766;1257;66065;-51
2023/07/04 01:55:09;;;;;;;1.30;1.10;;;;;;;14.92;100.00;99911.27;108658;1260;71478;-51
2023/07/04 01:57:37;;;;;;;4.40;1.50;;;;;;;14.93;100.00;99912.83;107057;1260;60417;-50
2023/07/04 02:00:08;;;;;;;2.70;1.60;;;;;;;14.95;100.00;99915.22;104234;1259;60020;-51
2023/07/04 02:02:54;;;;;;;3.80;1.30;;;;;;;14.98;100.00;99921.02;104796;1258;73093;-51
2023/07/04 02:05:22;;;;;;;1.90;1.50;;;;;;;15.00;100.00;99922.88;105534;1260;66079;-50
2023/07/04 02:07:49;;;;;;;2.10;1.90;;;;;;;15.01;100.00;99926.94;104475;1263;72451;-51
2023/07/04 02:10:17;;;;;;;3.40;1.50;;;;;;;14.99;100.00;99925.61;104565;1264;60879;-51
2023/07/04 02:12:44;;;;;;;4.20;2.40;;;;;;;14.99;100.00;99921.45;104623;1260;60019;-52
2023/07/04 02:15:11;;;;;;;4.00;2.40;;;;;;;15.00;100.00;99921.40;104437;1260;71793;-51
2023/07/04 02:17:40;;;;;;;2.10;2.00;;;;;;;15.00;100.00;99923.73;104494;1259;65656;-50
2023/07/04 02:20:08;;;;;;;3.90;2.50;;;;;;;15.00;100.00;99923.23;104689;1265;72698;-52
2023/07/04 02:22:37;;;;;;;5.40;2.60;;;;;;;14.99;100.00;99924.02;105093;1262;60486;-52
2023/07/04 02:25:05;;;;;;;2.20;2.00;;;;;;;14.98;100.00;99924.45;104511;1263;60377;-51
2023/07/04 02:27:33;;;;;;;4.50;1.70;;;;;;;14.96;100.00;99922.17;104588;1264;72897;-52
2023/07/04 02:30:03;;;;;;;2.60;2.40;;;;;;;14.98;100.00;99925.52;104768;1257;64983;-51
2023/07/04 02:32:30;;;;;;;3.40;2.10;;;;;;;15.00;100.00;99928.10;104625;1257;71422;-51
2023/07/04 02:34:58;;;;;;;3.70;1.70;;;;;;;15.00;100.00;99929.21;104788;1261;60479;-50
2023/07/04 02:37:26;;;;;;;4.00;1.60;;;;;;;14.96;100.00;99929.27;104692;1257;60458;-52
2023/07/04 02:39:54;;;;;;;2.40;2.20;;;;;;;14.96;100.00;99926.89;105066;1257;71620;-52
2023/07/04 02:42:22;;;;;;;2.40;1.60;;;;;;;15.00;100.00;99929.02;104840;1260;65526;-52
2023/07/04 02:44:51;;;;;;;4.50;1.70;;;;;;;15.03;100.00;99929.17;104729;1259;71872;-52
2023/07/04 02:47:18;;;;;;;2.20;1.40;;;;;;;15.06;100.00;99932.04;104890;1262;60559;-52
2023/07/04 02:49:46;;;;;;;1.70;1.60;;;;;;;15.07;100.00;99932.73;105074;1257;60574;-52
2023/07/04 02:52:13;;;;;;;4.00;2.20;;;;;;;15.08;100.00;99927.60;104842;1257;73817;-52
2023/07/04 02:54:41;;;;;;;1.50;1.40;;;;;;;15.07;100.00;99927.97;104861;1257;66231;-52
2023/07/04 02:57:13;;;;;;;2.60;1.90;;;;;;;15.09;100.00;99933.48;104767;1262;72707;-52
2023/07/04 02:59:41;;;;;;;1.90;1.80;;;;;;;15.11;100.00;99929.20;104843;1257;61864;-51
2023/07/04 03:02:11;;;;;;;6.80;2.00;;;;;;;15.13;100.00;99930.54;105095;1257;61044;-52
2023/07/04 03:04:39;;;;;;;4.00;1.60;;;;;;;15.15;100.00;99934.14;105258;1260;74023;-52
2023/07/04 03:07:06;;;;;;;2.20;1.70;;;;;;;15.21;100.00;99937.30;104746;1260;66802;-52
2023/07/04 03:09:34;;;;;;;2.30;1.90;;;;;;;15.27;100.00;99939.77;104715;1260;73020;-52
2023/07/04 03:12:02;;;;;;;3.40;1.90;;;;;;;15.31;100.00;99943.42;104907;1262;62136;-52
2023/07/04 03:14:29;;;;;;;2.20;1.70;;;;;;;15.37;100.00;99943.40;105206;1259;60552;-51
2023/07/04 03:16:57;;;;;;;1.80;1.60;;;;;;;15.44;100.00;99944.40;104669;1260;72672;-52
2023/07/04 03:19:24;;;;;;;1.70;1.60;;;;;;;15.53;100.00;99951.64;104851;1257;65481;-52
2023/07/04 03:21:53;;;;;;;2.10;1.60;;;;;;;15.60;100.00;99951.14;104751;1262;72769;-52
2023/07/04 03:24:20;;;;;;;1.70;1.40;;;;;;;15.68;100.00;99950.26;104745;1261;63668;-51
2023/07/04 03:26:48;;;;;;;2.20;1.80;;;;;;;15.75;100.00;99952.67;104787;1261;60490;-52
2023/07/04 03:29:17;;;;;;;2.40;1.80;;;;;;;15.79;100.00;99951.31;104895;1257;72533;-52
2023/07/04 03:31:45;;;;;;;1.70;1.60;;;;;;;15.83;100.00;99951.41;104787;1257;66834;-52
2023/07/04 03:34:13;;;;;;;2.60;1.70;;;;;;;15.88;100.00;99951.09;105957;1258;71265;-51
2023/07/04 03:36:40;;;;;;;1.70;1.60;;;;;;;15.94;100.00;99946.56;104681;1259;61612;-51
2023/07/04 03:39:07;;;;;;;3.00;1.60;;;;;;;15.99;100.00;99947.83;104632;1261;60486;-52
2023/07/04 03:41:35;;;;;;;2.10;1.80;;;;;;;16.03;100.00;99948.83;104831;1261;74258;-52
2023/07/04 03:44:02;;;;;;;1.90;1.50;;;;;;;16.10;100.00;99942.91;104729;1260;67233;-52
2023/07/04 03:46:30;;;;;;;5.90;2.10;;;;;;;16.18;100.00;99941.98;104704;1261;72455;-52
2023/07/04 03:48:57;;;;;;;2.70;1.30;;;;;;;16.27;100.00;99943.36;104768;1261;60456;-52
2023/07/04 03:51:25;;;;;;;2.90;1.70;;;;;;;16.38;100.00;99942.46;104848;1257;61064;-51
2023/07/04 03:53:52;;;;;;;2.80;1.50;;;;;;;16.48;100.00;99944.45;104734;1261;73795;-49
2023/07/04 03:56:20;;;;;;;2.50;1.70;;;;;;;16.58;100.00;99944.13;104856;1262;67827;-52
2023/07/04 03:58:47;;;;;;;3.80;2.10;;;;;;;16.69;100.00;99948.64;104687;1257;72587;-52
2023/07/04 04:01:15;;;;;;;1.60;1.50;;;;;;;16.80;100.00;99948.92;104683;1260;61584;-52
2023/07/04 04:03:42;;;;;;;3.10;1.40;;;;;;;16.90;100.00;99945.84;104924;1257;60536;-52
2023/07/04 04:06:10;;;;;;;4.00;1.40;;;;;;;16.98;100.00;99948.66;105003;1261;74318;-52
2023/07/04 04:08:37;;;;;;;2.10;1.30;;;;;;;17.08;100.00;99946.71;104830;1260;67215;-52
2023/07/04 04:11:05;;;;;;;2.90;1.70;;;;;;;17.18;100.00;99947.45;104909;1259;72690;-52
2023/07/04 04:13:32;;;;;;;4.60;1.60;;;;;;;17.28;100.00;99947.46;104926;1261;60564;-53
2023/07/04 04:16:00;;;;;;;2.00;1.50;;;;;;;17.39;100.00;99945.54;108916;1260;60439;-51
2023/07/04 04:18:27;;;;;;;2.80;2.20;;;;;;;17.48;100.00;99947.77;108988;1254;72630;-50
2023/07/04 04:20:55;;;;;;;2.40;1.80;;;;;;;17.59;100.00;99954.02;109108;1259;65495;-50
2023/07/04 04:23:22;;;;;;;2.10;1.90;;;;;;;17.71;100.00;99953.20;108954;1257;74114;-51
2023/07/04 04:25:49;;;;;;;1.90;1.70;;;;;;;17.82;100.00;99953.48;109108;1254;63183;-51
2023/07/04 04:28:17;;;;;;;2.60;2.40;;;;;;;17.93;100.00;99956.98;109085;1259;58745;-51
2023/07/04 04:30:45;;;;;;;5.70;2.00;;;;;;;18.04;100.00;99956.67;109133;1254;72573;-51
2023/07/04 04:33:12;;;;;;;1.80;1.60;;;;;;;18.15;100.00;99959.10;108954;1254;67514;-51
2023/07/04 04:35:40;;;;;;;2.90;1.80;;;;;;;18.26;100.00;99961.90;108924;1254;72446;-51
2023/07/04 04:38:10;;;;;;;2.10;1.80;;;;;;;18.38;100.00;99962.98;109036;1254;59011;-51
2023/07/04 04:40:39;;;;;;;3.80;2.00;;;;;;;18.50;100.00;99962.59;108828;1254;59331;-51
2023/07/04 04:43:08;;;;;;;3.20;2.00;;;;;;;18.62;100.00;99965.30;108986;1254;74609;-51
2023/07/04 04:45:36;;;;;;;3.20;2.30;;;;;;;18.73;100.00;99961.55;108867;1254;66755;-51
2023/07/04 04:48:06;;;;;;;2.40;1.70;;;;;;;18.83;100.00;99956.73;108876;1260;72485;-51
2023/07/04 04:50:35;;;;;;;2.40;1.70;;;;;;;18.94;100.00;99954.54;108851;1254;61630;-51
2023/07/04 04:53:02;;;;;;;4.00;1.50;;;;;;;19.05;100.00;99956.08;108832;1254;61997;-51
2023/07/04 04:55:30;;;;;;;5.70;2.10;;;;;;;19.15;100.00;99958.67;108799;1259;72642;-51
2023/07/04 04:57:57;;;;;;;3.30;1.50;;;;;;;19.26;100.00;99958.34;108934;1254;65581;-52
2023/07/04 05:00:24;;;;;;;4.10;1.60;;;;;;;19.38;100.00;99959.75;108963;1257;72612;-52
2023/07/04 05:02:54;;;;;;;1.70;1.50;;;;;;;19.50;100.00;99953.52;105971;1260;60518;-52
2023/07/04 05:05:22;;;;;;;12.10;2.70;;;;;;;19.63;100.00;99955.86;105131;1254;60475;-51
2023/07/04 05:07:49;;;;;;;3.70;1.80;;;;;;;19.76;100.00;99950.63;104984;1260;73876;-52
2023/07/04 05:10:17;;;;;;;3.70;1.30;;;;;;;19.89;100.00;99952.48;104899;1255;65704;-52
2023/07/04 05:12:44;;;;;;;2.40;1.50;;;;;;;20.01;100.00;99951.95;104837;1255;73257;-52
2023/07/04 05:15:11;;;;;;;3.60;1.50;;;;;;;20.12;100.00;99950.45;104925;1258;60565;-51
2023/07/04 05:17:39;;;;;;;2.80;1.40;;;;;;;20.25;100.00;99947.02;104994;1254;60454;-53
2023/07/04 05:20:07;;;;;;;2.30;1.20;;;;;;;20.37;100.00;99944.16;105293;1260;72686;-53
2023/07/04 05:22:34;;;;;;;5.30;1.70;;;;;;;20.50;100.00;99948.01;104926;1259;66749;-54
2023/07/04 05:25:02;;;;;;;4.10;1.50;;;;;;;20.60;100.00;99943.63;104916;1260;72676;-54
2023/07/04 05:27:29;;;;;;;5.20;1.30;;;;;;;20.70;100.00;99938.89;104957;1260;60512;-53
2023/07/04 05:29:57;;;;;;;3.50;1.70;;;;;;;20.80;100.00;99937.17;104943;1254;60745;-53
2023/07/04 05:32:24;;;;;;;1.40;1.00;;;;;;;20.90;100.00;99934.23;104697;1259;72597;-52
2023/07/04 05:34:52;;;;;;;2.90;1.10;;;;;;;21.01;100.00;99929.63;105592;1260;65733;-51
2023/07/04 05:37:20;;;;;;;2.60;1.50;;;;;;;21.10;100.00;99928.07;104775;1258;71292;-53
2023/07/04 05:39:49;;;;;;;7.80;2.00;;;;;;;21.21;100.00;99925.35;105045;1258;60366;-53
2023/07/04 05:42:17;;;;;;;4.00;1.50;;;;;;;21.32;100.00;99923.06;105192;1257;60539;-52
2023/07/04 05:44:44;;;;;;;4.00;1.80;;;;;;;21.41;100.00;99922.02;104975;1260;74350;-52
2023/07/04 05:47:12;;;;;;;2.50;1.50;;;;;;;21.51;100.00;99917.66;105136;1254;68571;-51
2023/07/04 05:49:39;;;;;;;2.90;1.10;;;;;;;21.61;100.00;99918.20;105338;1257;74776;-53
2023/07/04 05:52:07;;;;;;;6.00;1.20;;;;;;;21.69;100.00;99915.60;105016;1261;60440;-52
2023/07/04 05:54:34;;;;;;;1.80;1.30;;;;;;;21.78;100.00;99911.52;104876;1260;60668;-51
2023/07/04 05:57:01;;;;;;;2.30;1.30;;;;;;;21.85;100.00;99914.64;104865;1254;72634;-51
2023/07/04 05:59:29;;;;;;;4.50;1.10;;;;;;;21.94;100.00;99914.56;104940;1258;65649;-51
2023/07/04 06:01:58;;;;;;;2.50;1.40;;;;;;;22.03;100.00;99913.80;104949;1261;70899;-53
2023/07/04 06:04:26;;;;;;;3.70;1.30;;;;;;;22.11;100.00;99913.94;104944;1260;60522;-53
2023/07/04 06:06:53;;;;;;;3.40;1.20;;;;;;;22.17;100.00;99905.64;104969;1260;60531;-53
2023/07/04 06:09:21;;;;;;;2.10;1.20;;;;;;;22.24;100.00;99903.33;104950;1260;72048;-52
2023/07/04 06:11:49;;;;;;;3.00;1.30;;;;;;;22.32;100.00;99900.62;104892;1257;67563;-53
2023/07/04 06:14:27;;;;;;;2.20;1.20;;;;;;;22.39;100.00;99898.84;105256;1257;72756;-52
2023/07/04 06:16:57;;;;;;;4.00;1.60;;;;;;;22.46;100.00;99897.08;105425;1258;61735;-51
2023/07/04 06:19:25;;;;;;;3.50;1.30;;;;;;;22.53;100.00;99900.80;104988;1257;60421;-52
2023/07/04 06:21:53;;;;;;;3.00;1.30;;;;;;;22.60;100.00;99898.62;105050;1257;74265;-52
2023/07/04 06:24:20;;;;;;;3.40;1.20;;;;;;;22.67;100.00;99896.30;104705;1257;65688;-52
2023/07/04 06:26:48;;;;;;;2.00;1.00;;;;;;;22.75;100.00;99893.61;104845;1257;71472;-52
2023/07/04 06:29:15;;;;;;;2.30;1.20;;;;;;;22.81;100.00;99895.40;104835;1257;60046;-53
2023/07/04 06:31:43;;;;;;;1.70;1.00;;;;;;;22.87;100.00;99894.20;104839;1260;60562;-53
2023/07/04 06:34:11;;;;;;;1.80;1.40;;;;;;;22.94;100.00;99887.52;104650;1256;74289;-53
2023/07/04 06:36:40;;;;;;;1.40;1.10;;;;;;;23.00;100.00;99887.39;105222;1261;66140;-54
2023/07/04 06:39:08;;;;;;;1.40;1.20;;;;;;;23.07;100.00;99885.55;104979;1261;72496;-54
2023/07/04 06:41:35;;;;;;;4.40;1.20;;;;;;;23.10;100.00;99880.09;104871;1257;60575;-52
2023/07/04 06:44:04;;;;;;;2.20;1.30;;;;;;;23.14;100.00;99874.95;104763;1261;62005;-53
2023/07/04 06:46:32;;;;;;;2.30;1.00;;;;;;;23.20;100.00;99871.23;104787;1257;76656;-52
2023/07/04 06:48:59;;;;;;;8.70;1.10;;;;;;;23.26;100.00;99872.64;104879;1261;66756;-53
2023/07/04 06:51:30;;;;;;;2.10;1.10;;;;;;;23.34;100.00;99873.11;104712;1257;73302;-53
2023/07/04 06:53:58;;;;;;;1.80;1.20;;;;;;;23.41;100.00;99874.38;105261;1258;60561;-52
2023/07/04 06:56:25;;;;;;;2.30;1.60;;;;;;;23.47;100.00;99870.02;104736;1257;61695;-51
2023/07/04 06:58:53;;;;;;;4.40;1.50;;;;;;;23.51;100.00;99871.61;105240;1258;74329;-51
2023/07/04 07:01:28;;;;;;;2.00;1.30;;;;;;;23.55;100.00;99871.19;105656;1260;66798;-50
2023/07/04 07:03:56;;;;;;;2.70;1.20;;;;;;;23.62;100.00;99870.72;104779;1257;73322;-51
2023/07/04 07:06:25;;;;;;;1.40;0.90;;;;;;;23.67;100.00;99871.25;104825;1254;62172;-53
2023/07/04 07:08:53;;;;;;;2.60;1.10;;;;;;;23.71;100.00;99869.45;105755;1257;60600;-52
2023/07/04 07:11:21;;;;;;;1.40;1.00;;;;;;;23.75;100.00;99869.90;105500;1260;74323;-52
2023/07/04 07:13:49;;;;;;;1.30;1.00;;;;;;;23.79;100.00;99865.31;105039;1257;65512;-51
2023/07/04 07:16:19;;;;;;;7.40;1.00;;;;;;;23.85;100.00;99860.65;105591;1259;73157;-53
2023/07/04 07:18:47;;;;;;;1.70;1.10;;;;;;;23.92;100.00;99861.62;104652;1262;60562;-51
2023/07/04 07:21:18;;;;;;;2.30;1.30;;;;;;;23.98;100.00;99861.52;104761;1257;60464;-53
2023/07/04 07:23:46;;;;;;;3.50;1.40;;;;;;;24.04;100.00;99861.61;106160;1258;73905;-53
2023/07/04 07:26:16;;;;;;;2.90;1.20;;;;;;;24.12;100.00;99863.55;104704;1257;66809;-52
2023/07/04 07:28:48;;;;;;;2.70;1.20;;;;;;;24.19;100.00;99861.55;104833;1257;71487;-52
2023/07/04 07:31:21;;;;;;;3.00;1.30;;;;;;;24.23;100.00;99855.09;104679;1257;60558;-53
2023/07/04 07:33:53;;;;;;;2.30;1.50;;;;;;;24.27;100.00;99855.48;104729;1260;60489;-54
2023/07/04 07:36:24;;;;;;;4.20;1.10;;;;;;;24.29;100.00;99857.04;104797;1257;73927;-52
2023/07/04 07:38:53;;;;;;;2.50;1.30;;;;;;;24.33;100.00;99859.16;104822;1258;66748;-52
2023/07/04 07:41:31;;;;;;;2.70;1.70;;;;;;;24.36;100.00;99853.74;104670;1259;72260;-52
2023/07/04 07:43:59;;;;;;;1.50;1.20;;;;;;;24.40;100.00;99844.09;108764;1257;61021;-53
2023/07/04 07:46:26;;;;;;;1.30;1.10;;;;;;;24.48;100.00;99845.45;108845;1257;59559;-54
2023/07/04 07:48:55;;;;;;;3.00;1.10;;;;;;;24.55;100.00;99845.30;108790;1257;74089;-53
2023/07/04 07:51:22;;;;;;;2.80;1.00;;;;;;;24.62;100.00;99851.58;106258;1257;65526;-53
2023/07/04 07:53:50;;;;;;;2.40;1.30;;;;;;;24.69;100.00;99853.01;104877;1257;72836;-53
2023/07/04 07:56:18;;;;;;;2.90;1.20;;;;;;;24.76;100.00;99851.64;104785;1258;60869;-53
2023/07/04 07:58:46;;;;;;;2.40;0.90;;;;;;;24.85;100.00;99855.32;104606;1256;60559;-53
2023/07/04 08:01:15;;;;;;;2.40;1.00;;;;;;;24.94;100.00;99860.27;104724;1256;72599;-53
2023/07/04 08:03:43;;;;;;;2.30;1.00;;;;;;;25.02;100.00;99863.60;104430;1257;67203;-53
2023/07/04 08:06:28;;;;;;;1.20;1.00;;;;;;;25.09;100.00;99858.48;108781;1256;76404;-54
2023/07/04 08:08:58;;;;;;;2.10;1.00;;;;;;;25.17;100.00;99857.48;108019;1254;59244;-54
2023/07/04 08:11:25;;;;;;;1.20;1.00;;;;;;;25.23;100.00;99852.87;105433;1254;60403;-52
2023/07/04 08:13:53;;;;;;;1.20;1.00;;;;;;;25.32;100.00;99848.70;105113;1255;72658;-54
2023/07/04 08:16:24;;;;;;;3.90;1.10;;;;;;;25.39;100.00;99846.45;105025;1254;65539;-52
2023/07/04 08:18:52;;;;;;;1.80;1.20;;;;;;;25.46;100.00;99847.66;104811;1260;73170;-52
2023/07/04 08:21:19;;;;;;;3.10;1.50;;;;;;;25.54;100.00;99852.64;104785;1254;60714;-53
2023/07/04 08:23:47;;;;;;;5.00;1.40;;;;;;;25.62;100.00;99850.84;104952;1254;60504;-53
2023/07/04 08:26:19;;;;;;;2.60;1.20;;;;;;;25.70;100.00;99852.59;104999;1256;73842;-52
2023/07/04 08:28:46;;;;;;;3.40;1.10;;;;;;;25.75;100.00;99848.52;104953;1254;65230;-53
2023/07/04 08:31:17;;;;;;;5.60;1.40;;;;;;;25.78;100.00;99850.39;104727;1254;72697;-53
2023/07/04 08:33:46;;;;;;;1.70;1.30;;;;;;;25.81;100.00;99849.55;104942;1254;60454;-54
2023/07/04 08:36:14;;;;;;;1.50;1.10;;;;;;;25.86;100.00;99849.91;104984;1259;60543;-52
2023/07/04 08:38:42;;;;;;;1.10;0.90;;;;;;;25.92;100.00;99847.79;105103;1259;72659;-54
2023/07/04 08:41:25;;;;;;;3.10;1.00;;;;;;;25.98;100.00;99851.00;104719;1254;65889;-53
2023/07/04 08:44:05;;;;;;;2.60;1.10;;;;;;;25.98;100.00;99853.89;104744;1254;73204;-53
2023/07/04 08:46:35;;;;;;;1.90;1.30;;;;;;;25.96;100.00;99850.57;104525;1254;60537;-53
2023/07/04 08:49:03;;;;;;;2.80;1.00;;;;;;;25.99;100.00;99855.48;104822;1254;61300;-53
2023/07/04 08:51:39;;;;;;;3.60;1.00;;;;;;;26.04;100.00;99851.04;104553;1254;73863;-53
2023/07/04 08:54:10;;;;;;;3.90;1.10;;;;;;;26.12;100.00;99851.40;105291;1254;66958;-54
2023/07/04 08:56:38;;;;;;;2.90;1.10;;;;;;;26.19;100.00;99850.02;105391;1261;72929;-54
2023/07/04 08:59:17;;;;;;;4.50;1.20;;;;;;;26.23;100.00;99847.20;104961;1257;60655;-53
2023/07/04 09:02:11;;;;;;;3.30;1.20;;;;;;;26.26;100.00;99840.70;104851;1260;60562;-53
2023/07/04 09:04:50;;;;;;;1.20;1.00;;;;;;;26.28;100.00;99841.88;104692;1254;75767;-53
2023/07/04 09:07:36;;;;;;;3.00;1.00;;;;;;;26.31;100.00;99840.19;105035;1254;66851;-52
2023/07/04 09:10:09;;;;;;;1.50;1.00;;;;;;;26.36;100.00;99835.67;104800;1257;72475;-53
2023/07/04 09:12:37;;;;;;;1.90;1.50;;;;;;;26.43;100.00;99832.51;104866;1257;60468;-53
2023/07/04 09:15:42;;;;;;;1.50;1.10;;;;;;;26.50;100.00;99833.32;104885;1257;60615;-53
2023/07/04 09:18:34;;;;;;;2.20;1.00;;;;;;;26.59;100.00;99833.45;104339;1262;73872;-53
2023/07/04 09:21:22;;;;;;;1.80;1.20;;;;;;;26.66;100.00;99836.27;104895;1256;66769;-53
2023/07/04 09:23:50;;;;;;;2.70;0.90;;;;;;;26.71;100.00;99835.42;104882;1260;71390;-53
2023/07/04 09:26:19;;;;;;;1.40;1.20;;;;;;;26.74;100.00;99837.94;105036;1258;62257;-53
2023/07/04 09:28:47;;;;;;;1.40;1.30;;;;;;;26.79;100.00;99836.25;104801;1257;60734;-53
2023/07/04 09:31:21;;;;;;;2.20;1.00;;;;;;;26.86;100.00;99843.94;104667;1257;72707;-52
2023/07/04 09:33:49;;;;;;;;;;;;;;;26.92;100.00;99837.48;104712;1258;66773;-54
2023/07/04 09:36:17;;;;;;;1.60;1.00;;;;;;;26.98;100.00;99835.41;104753;1257;72754;-51
2023/07/04 09:38:58;;;;;;;3.20;1.10;;;;;;;26.99;100.00;99834.46;105453;1257;60374;-54
2023/07/04 09:41:29;;;;;;;5.10;1.00;;;;;;;27.01;100.00;99834.64;104822;1260;60841;-54
2023/07/04 09:44:29;;;;;;;1.60;1.20;;;;;;;26.99;100.00;99845.79;104810;1257;73887;-53
2023/07/04 09:46:58;;;;;;;1.20;1.10;;;;;;;26.94;100.00;99846.16;105319;1256;66907;-53
2023/07/04 09:49:27;;;;;;;2.40;1.20;;;;;;;26.92;100.00;99845.46;104661;1256;71943;-54
2023/07/04 09:52:11;;;;;;;1.60;1.10;;;;;;;26.94;100.00;99846.37;104563;1258;60477;-55
2023/07/04 09:54:39;;;;;;;1.20;1.00;;;;;;;26.92;100.00;99846.06;104771;1257;60543;-55
2023/07/04 09:57:24;;;;;;;3.10;1.10;;;;;;;26.89;100.00;99851.89;104856;1261;74007;-55
2023/07/04 09:59:53;;;;;;;2.40;1.00;;;;;;;26.87;100.00;99853.05;104702;1257;66807;-54
2023/07/04 10:02:25;;;;;;;4.00;1.30;;;;;;;26.89;100.00;99859.54;106596;1256;71897;-53
2023/07/04 10:04:53;;;;;;;2.20;0.90;;;;;;;26.95;100.00;99859.35;105071;1256;60572;-53
2023/07/04 10:07:23;;;;;;;1.30;0.90;;;;;;;27.00;100.00;99859.95;104636;1256;60591;-55
2023/07/04 10:09:57;;;;;;;3.30;1.10;;;;;;;27.08;100.00;99859.48;106540;1256;73836;-53
2023/07/04 10:12:25;;;;;;;1.20;1.10;;;;;;;27.14;100.00;99861.88;104986;1254;66765;-53
2023/07/04 10:14:56;;;;;;;2.10;1.20;;;;;;;27.22;100.00;99864.07;106963;1254;73135;-53
2023/07/04 10:17:32;;;;;;;2.50;0.90;;;;;;;27.30;100.00;99860.16;104772;1257;60905;-53
2023/07/04 10:20:08;;;;;;;2.90;1.10;;;;;;;27.35;100.00;99862.19;104940;1256;62670;-53
2023/07/04 10:22:39;;;;;;;1.00;0.90;;;;;;;27.35;100.00;99862.18;104528;1254;73824;-51
2023/07/04 10:27:54;;;;;;;3.40;1.00;;;;;;;27.34;100.00;99878.34;101804;1293;599666;-50
2023/07/04 10:30:23;;;;;;;1.10;0.90;;;;;;;27.30;100.00;99889.54;104494;1258;59549;-52
2023/07/04 10:32:55;;;;;;;2.00;1.00;;;;;;;27.25;100.00;99887.30;108604;1257;59182;-53
2023/07/04 10:35:25;;;;;;;7.30;1.20;;;;;;;27.19;100.00;99885.88;108615;1257;70992;-54
2023/07/04 10:37:56;;;;;;;1.80;1.60;;;;;;;27.14;100.00;99884.19;107976;1258;66273;-53
2023/07/04 10:40:24;;;;;;;1.10;1.00;;;;;;;27.09;100.00;99887.06;108524;1260;281143;-55
2023/07/04 10:43:01;;;;;;;2.50;1.30;;;;;;;27.05;100.00;99891.09;108747;1254;58779;-53
2023/07/04 10:45:29;;;;;;;2.50;0.90;;;;;;;27.04;100.00;99894.10;108818;1255;58778;-53
2023/07/04 10:48:03;;;;;;;2.60;1.00;;;;;;;27.09;100.00;99890.63;108882;1254;70942;-52
2023/07/04 10:50:33;;;;;;;1.30;0.80;;;;;;;27.18;100.00;99891.98;108774;1257;66780;-53
2023/07/04 10:53:01;;;;;;;3.80;1.00;;;;;;;27.29;100.00;99894.54;105535;1257;72742;-53
2023/07/04 10:56:05;;;;;;;1.10;1.00;;;;;;;27.40;100.00;99891.98;104595;1260;59950;-53
2023/07/04 10:58:41;;;;;;;1.90;0.90;;;;;;;27.49;100.00;99888.52;108672;1255;58837;-53
2023/07/04 11:01:23;;;;;;;1.20;1.00;;;;;;;27.56;100.00;99888.70;108450;1255;75016;-55
2023/07/04 11:04:00;;;;;;;1.20;1.00;;;;;;;27.61;100.00;99891.90;108666;1256;66894;-54
2023/07/04 11:06:34;;;;;;;1.70;1.60;;;;;;;27.63;100.00;99894.45;108686;1255;72551;-53
2023/07/04 11:09:04;;;;;;;2.30;0.90;;;;;;;27.69;100.00;99897.08;108654;1254;58791;-54
2023/07/04 11:11:31;;;;;;;3.20;1.30;;;;;;;27.77;100.00;99894.51;107367;1257;59973;-53
2023/07/04 11:14:06;;;;;;;2.70;1.20;;;;;;;27.83;100.00;99898.35;104519;1254;73068;-52
2023/07/04 11:16:39;;;;;;;1.20;1.10;;;;;;;27.87;100.00;99904.02;107422;1255;65601;-53
2023/07/04 11:19:15;;;;;;;1.90;1.10;;;;;;;27.88;100.00;99904.84;104539;1257;74854;-52
2023/07/04 11:22:00;;;;;;;4.00;1.00;;;;;;;27.87;100.00;99908.95;104782;1256;59911;-54
2023/07/04 11:24:38;;;;;;;2.80;1.00;;;;;;;27.90;100.00;99908.83;105476;1257;59623;-53
2023/07/04 11:27:17;;;;;;;1.70;1.10;;;;;;;27.94;100.00;99911.11;104864;1257;72971;-54
2023/07/04 11:29:54;;;;;;;2.60;1.00;;;;;;;27.98;100.00;99911.38;104926;1256;67257;-52
2023/07/04 11:32:27;;;;;;;1.20;1.00;;;;;;;28.02;100.00;99915.22;105587;1256;73583;-53
2023/07/04 11:35:14;;;;;;;4.60;0.90;;;;;;;28.06;100.00;99918.11;104978;1260;60058;-53